createdAt,value
2022-09-20T00:00:45.482Z,8.60
2022-09-20T00:03:12.735Z,8.60
2022-09-20T00:05:42.202Z,8.60
2022-09-20T00:08:12.068Z,8.60
2022-09-20T00:10:39.578Z,8.60
2022-09-20T00:13:07.783Z,8.70
2022-09-20T00:15:34.963Z,8.70
2022-09-20T00:18:01.943Z,8.70
2022-09-20T00:20:28.962Z,8.60
2022-09-20T00:22:55.901Z,8.60
2022-09-20T00:25:22.874Z,8.60
2022-09-20T00:27:49.955Z,8.60
2022-09-20T00:30:17.118Z,8.60
2022-09-20T00:32:44.090Z,8.60
2022-09-20T00:35:11.210Z,8.60
2022-09-20T00:37:39.910Z,8.60
2022-09-20T00:40:09.542Z,8.60
2022-09-20T00:42:36.752Z,8.70
2022-09-20T00:45:08.538Z,8.70
2022-09-20T00:47:41.597Z,8.60
2022-09-20T00:50:20.718Z,8.70
2022-09-20T00:52:48.059Z,8.70
2022-09-20T00:55:15.778Z,8.60
2022-09-20T00:57:43.149Z,8.50
2022-09-20T01:00:11.151Z,8.60
2022-09-20T01:02:40.833Z,8.70
2022-09-20T01:05:08.691Z,8.70
2022-09-20T01:07:36.099Z,8.70
2022-09-20T01:10:03.090Z,8.70
2022-09-20T01:12:31.387Z,8.80
2022-09-20T01:14:58.479Z,8.80
2022-09-20T01:17:26.697Z,8.80
2022-09-20T01:20:14.414Z,8.80
2022-09-20T01:23:16.861Z,8.80
2022-09-20T01:26:11.915Z,8.80
2022-09-20T01:28:39.350Z,8.80
2022-09-20T01:31:25.509Z,8.80
2022-09-20T01:34:07.829Z,8.80
2022-09-20T01:36:59.608Z,8.80
2022-09-20T01:39:45.356Z,8.70
2022-09-20T01:42:13.683Z,8.70
2022-09-20T01:44:55.929Z,8.60
2022-09-20T01:47:40.583Z,8.60
2022-09-20T01:50:31.818Z,8.50
2022-09-20T01:53:04.885Z,8.60
2022-09-20T01:56:05.131Z,8.60
2022-09-20T01:59:19.427Z,8.60
2022-09-20T02:01:59.369Z,8.60
2022-09-20T02:04:48.374Z,8.50
2022-09-20T02:07:31.297Z,8.60
2022-09-20T02:10:16.598Z,8.60
2022-09-20T02:13:07.287Z,8.60
2022-09-20T02:15:47.851Z,8.50
2022-09-20T02:18:36.856Z,8.50
2022-09-20T02:21:15.945Z,8.40
2022-09-20T02:23:59.693Z,8.40
2022-09-20T02:26:56.543Z,8.40
2022-09-20T02:29:53.831Z,8.50
2022-09-20T02:32:34.042Z,8.50
2022-09-20T02:35:07.292Z,8.60
2022-09-20T02:37:55.881Z,8.60
2022-09-20T02:40:35.120Z,8.60
2022-09-20T02:43:08.221Z,8.60
2022-09-20T02:45:57.256Z,8.60
2022-09-20T02:48:28.907Z,8.60
2022-09-20T02:50:55.978Z,8.60
2022-09-20T02:53:47.765Z,8.50
2022-09-20T02:56:22.769Z,8.50
2022-09-20T02:59:18.605Z,8.50
2022-09-20T03:02:01.035Z,8.60
2022-09-20T03:04:46.697Z,8.60
2022-09-20T03:07:52.455Z,8.50
2022-09-20T03:10:28.305Z,8.60
2022-09-20T03:13:18.940Z,8.60
2022-09-20T03:16:07.895Z,8.70
2022-09-20T03:18:57.842Z,8.70
2022-09-20T03:21:51.533Z,8.70
2022-09-20T03:24:43.535Z,8.70
2022-09-20T03:27:10.534Z,8.70
2022-09-20T03:29:59.593Z,8.70
2022-09-20T03:32:32.628Z,8.70
2022-09-20T03:35:29.698Z,8.70
2022-09-20T03:38:09.092Z,8.50
2022-09-20T03:40:48.355Z,8.70
2022-09-20T03:43:26.059Z,8.80
2022-09-20T03:46:12.911Z,8.80
2022-09-20T03:49:31.265Z,8.80
2022-09-20T03:52:16.945Z,8.80
2022-09-20T03:54:55.095Z,8.90
2022-09-20T03:57:43.677Z,8.90
2022-09-20T04:00:29.731Z,8.90
2022-09-20T04:03:27.809Z,9.00
2022-09-20T04:06:28.442Z,9.00
2022-09-20T04:09:20.204Z,9.00
2022-09-20T04:12:05.768Z,9.00
2022-09-20T04:14:50.623Z,9.00
2022-09-20T04:17:43.182Z,8.90
2022-09-20T04:20:36.768Z,9.00
2022-09-20T04:23:35.385Z,9.00
2022-09-20T04:26:02.928Z,8.90
2022-09-20T04:28:41.187Z,9.00
2022-09-20T04:31:43.235Z,9.00
2022-09-20T04:34:45.482Z,9.00
2022-09-20T04:37:33.224Z,8.90
2022-09-20T04:40:07.014Z,8.90
2022-09-20T04:42:59.164Z,8.90
2022-09-20T04:45:29.180Z,8.90
2022-09-20T04:48:04.891Z,8.80
2022-09-20T04:50:36.398Z,8.90
2022-09-20T04:53:22.113Z,9.00
2022-09-20T04:55:53.124Z,9.00
2022-09-20T04:58:44.886Z,9.00
2022-09-20T05:01:31.635Z,9.00
2022-09-20T05:04:16.700Z,9.00
2022-09-20T05:06:53.833Z,9.00
2022-09-20T05:09:39.045Z,9.20
2022-09-20T05:12:24.868Z,9.10
2022-09-20T05:14:56.702Z,9.10
2022-09-20T05:17:55.541Z,9.20
2022-09-20T05:20:43.981Z,9.20
2022-09-20T05:23:33.969Z,9.30
2022-09-20T05:26:19.886Z,9.30
2022-09-20T05:28:53.910Z,9.40
2022-09-20T05:31:35.976Z,9.40
2022-09-20T05:34:12.669Z,9.40
2022-09-20T05:36:58.108Z,9.40
2022-09-20T05:40:06.698Z,9.60
2022-09-20T05:42:47.286Z,9.50
2022-09-20T05:45:52.363Z,9.50
2022-09-20T05:48:44.179Z,9.50
2022-09-20T05:51:27.973Z,9.30
2022-09-20T05:54:03.852Z,9.60
2022-09-20T05:56:52.691Z,9.70
2022-09-20T05:59:38.248Z,9.70
2022-09-20T06:02:29.851Z,9.80
2022-09-20T06:05:04.797Z,9.90
2022-09-20T06:07:42.574Z,9.90
2022-09-20T06:10:26.635Z,10.00
2022-09-20T06:13:00.061Z,9.80
2022-09-20T06:15:45.014Z,10.00
2022-09-20T06:18:35.336Z,9.90
2022-09-20T06:21:21.540Z,9.90
2022-09-20T06:26:46.722Z,10.00
2022-09-20T06:29:13.751Z,10.00
2022-09-20T06:31:40.867Z,10.00
2022-09-20T06:34:11.349Z,10.20
2022-09-20T06:37:17.543Z,10.10
2022-09-20T06:40:17.653Z,10.10
2022-09-20T06:42:46.041Z,10.20
2022-09-20T06:51:56.861Z,10.40
2022-09-20T06:54:27.248Z,10.50
2022-09-20T06:56:56.973Z,10.70
2022-09-20T06:59:24.009Z,10.60
2022-09-20T07:01:50.958Z,10.50
2022-09-20T07:04:17.889Z,10.60
2022-09-20T07:06:44.855Z,10.60
2022-09-20T07:09:11.956Z,10.60
2022-09-20T07:11:38.911Z,10.60
2022-09-20T07:14:08.164Z,10.60
2022-09-20T07:16:36.500Z,10.70
2022-09-20T07:19:05.433Z,10.70
2022-09-20T07:21:32.997Z,10.70
2022-09-20T07:24:00.207Z,10.70
2022-09-20T07:26:28.779Z,10.70
2022-09-20T07:28:56.096Z,10.70
2022-09-20T07:31:24.018Z,10.70
2022-09-20T07:33:51.027Z,10.80
2022-09-20T07:36:18.062Z,10.90
2022-09-20T07:38:53.231Z,11.00
2022-09-20T07:41:20.811Z,11.00
2022-09-20T07:43:47.820Z,11.00
2022-09-20T07:46:15.058Z,11.00
2022-09-20T07:48:42.722Z,11.00
2022-09-20T07:51:11.457Z,11.10
2022-09-20T07:53:38.659Z,11.20
2022-09-20T07:56:16.252Z,11.10
2022-09-20T07:58:44.364Z,11.30
2022-09-20T08:01:14.452Z,11.40
2022-09-20T08:03:43.145Z,11.60
2022-09-20T08:06:18.788Z,11.70
2022-09-20T08:08:45.694Z,11.80
2022-09-20T08:11:15.656Z,12.00
2022-09-20T08:16:40.812Z,12.00
2022-09-20T08:19:07.838Z,12.00
2022-09-20T08:21:40.437Z,12.00
2022-09-20T08:24:07.418Z,12.00
2022-09-20T08:26:35.991Z,11.90
2022-09-20T08:29:03.758Z,12.00
2022-09-20T08:31:34.527Z,12.00
2022-09-20T08:34:10.262Z,11.90
2022-09-20T08:36:41.564Z,11.80
2022-09-20T08:42:20.911Z,11.70
2022-09-20T08:44:57.824Z,9.90
2022-09-20T08:47:29.736Z,11.60
2022-09-20T08:49:57.358Z,11.60
2022-09-20T08:52:38.471Z,11.70
2022-09-20T08:55:40.374Z,11.80
2022-09-20T08:58:09.854Z,12.00
2022-09-20T09:00:37.995Z,11.90
2022-09-20T09:03:17.032Z,12.10
2022-09-20T09:05:47.813Z,12.20
2022-09-20T09:08:20.605Z,12.30
2022-09-20T09:10:58.814Z,12.40
2022-09-20T09:13:27.466Z,12.60
2022-09-20T09:15:59.406Z,12.70
2022-09-20T09:18:37.591Z,12.70
2022-09-20T09:21:05.188Z,12.70
2022-09-20T09:23:41.723Z,12.60
2022-09-20T09:26:40.996Z,12.50
2022-09-20T09:29:08.579Z,12.40
2022-09-20T09:31:38.710Z,12.30
2022-09-20T09:34:17.274Z,12.10
2022-09-20T09:36:44.552Z,12.10
2022-09-20T09:39:29.875Z,12.10
2022-09-20T09:41:57.507Z,12.10
2022-09-20T09:44:25.455Z,12.10
2022-09-20T09:46:56.566Z,12.10
2022-09-20T09:49:27.914Z,12.30
2022-09-20T09:52:05.119Z,12.60
2022-09-20T09:54:37.514Z,12.90
2022-09-20T09:57:22.650Z,13.00
2022-09-20T09:59:55.419Z,13.10
2022-09-20T10:02:50.887Z,13.20
2022-09-20T10:05:58.368Z,13.20
2022-09-20T10:08:35.565Z,13.10
2022-09-20T10:11:24.390Z,13.10
2022-09-20T10:14:29.887Z,13.10
2022-09-20T10:17:12.418Z,13.00
2022-09-20T10:20:02.397Z,12.90
2022-09-20T10:23:29.917Z,12.60
2022-09-20T10:25:48.797Z,12.40
2022-09-20T10:28:48.555Z,12.40
2022-09-20T10:31:31.058Z,12.70
2022-09-20T10:34:17.554Z,12.70
2022-09-20T10:37:12.134Z,12.70
2022-09-20T10:39:39.419Z,12.80
2022-09-20T10:42:43.608Z,12.90
2022-09-20T10:45:43.918Z,13.00
2022-09-20T10:48:14.638Z,13.30
2022-09-20T10:51:09.155Z,13.20
2022-09-20T10:53:39.113Z,12.80
2022-09-20T10:56:28.292Z,12.40
2022-09-20T10:59:33.714Z,11.70
2022-09-20T11:02:21.266Z,11.40
2022-09-20T11:38:58.287Z,12.00
2022-09-20T11:41:29.549Z,12.10
2022-09-20T11:44:08.085Z,12.40
2022-09-20T11:46:50.563Z,12.70
2022-09-20T11:49:21.438Z,12.80
2022-09-20T11:52:08.314Z,13.00
2022-09-20T11:54:42.329Z,13.20
2022-09-20T11:57:12.774Z,13.30
2022-09-20T11:59:43.829Z,13.70
2022-09-20T12:02:35.181Z,14.20
2022-09-20T12:05:04.262Z,15.00
2022-09-20T12:07:42.896Z,15.50
2022-09-20T12:10:26.732Z,15.70
2022-09-20T12:13:01.910Z,15.30
2022-09-20T12:15:35.393Z,14.70
2022-09-20T12:18:15.803Z,14.20
2022-09-20T12:20:42.884Z,13.80
2022-09-20T12:23:39.104Z,13.80
2022-09-20T12:26:21.888Z,13.60
2022-09-20T12:28:50.365Z,13.70
2022-09-20T12:31:29.847Z,14.00
2022-09-20T12:34:15.990Z,14.30
2022-09-20T12:36:55.446Z,14.00
2022-09-20T12:39:30.057Z,13.70
2022-09-20T12:41:57.442Z,13.40
2022-09-20T12:44:36.519Z,13.10
2022-09-20T12:47:12.530Z,13.00
2022-09-20T12:50:07.010Z,12.90
2022-09-20T12:53:01.658Z,13.50
2022-09-20T12:55:45.819Z,14.00
2022-09-20T12:58:15.684Z,15.10
2022-09-20T13:00:47.207Z,16.40
2022-09-20T13:03:28.657Z,16.90
2022-09-20T13:06:13.670Z,16.30
2022-09-20T13:08:49.594Z,16.10
2022-09-20T13:11:39.385Z,15.80
2022-09-20T13:14:09.330Z,15.10
2022-09-20T13:16:47.558Z,14.70
2022-09-20T13:19:29.919Z,14.40
2022-09-20T13:22:06.251Z,14.10
2022-09-20T13:24:47.116Z,13.80
2022-09-20T13:27:25.931Z,13.60
2022-09-20T13:29:53.623Z,13.50
2022-09-20T13:32:27.478Z,13.40
2022-09-20T13:35:12.944Z,13.50
2022-09-20T13:37:53.888Z,13.40
2022-09-20T13:40:23.537Z,13.50
2022-09-20T13:42:52.426Z,13.50
2022-09-20T13:45:20.580Z,13.60
2022-09-20T13:47:52.204Z,13.70
2022-09-20T13:50:23.023Z,13.80
2022-09-20T13:52:52.245Z,14.00
2022-09-20T13:55:29.015Z,14.30
2022-09-20T13:57:57.513Z,14.50
2022-09-20T14:00:27.641Z,14.70
2022-09-20T14:02:55.017Z,15.20
2022-09-20T14:05:24.247Z,15.60
2022-09-20T14:07:51.209Z,16.10
2022-09-20T14:10:37.796Z,16.70
2022-09-20T14:13:08.754Z,17.30
2022-09-20T14:15:46.637Z,17.20
2022-09-20T14:18:17.955Z,17.20
2022-09-20T14:20:45.153Z,17.30
2022-09-20T14:23:22.708Z,17.10
2022-09-20T14:26:09.424Z,16.60
2022-09-20T14:28:37.849Z,16.60
2022-09-20T14:31:29.030Z,16.80
2022-09-20T14:34:00.307Z,16.70
2022-09-20T14:36:28.882Z,16.90
2022-09-20T14:39:02.903Z,16.90
2022-09-20T14:41:40.195Z,16.90
2022-09-20T14:44:18.652Z,16.70
2022-09-20T14:46:46.138Z,16.90
2022-09-20T14:49:25.938Z,16.50
2022-09-20T14:51:53.773Z,16.00
2022-09-20T14:54:30.764Z,15.60
2022-09-20T14:57:01.802Z,15.20
2022-09-20T14:59:30.693Z,14.90
2022-09-20T15:02:13.136Z,14.60
2022-09-20T15:04:40.832Z,14.30
2022-09-20T15:07:09.003Z,14.40
2022-09-20T15:09:35.985Z,15.00
2022-09-20T15:12:07.639Z,15.40
2022-09-20T15:14:37.859Z,15.70
2022-09-20T15:17:05.133Z,15.80
2022-09-20T15:19:32.273Z,15.90
2022-09-20T15:21:59.690Z,15.70
2022-09-20T15:24:26.681Z,15.30
2022-09-20T15:26:54.287Z,15.00
2022-09-20T15:29:21.904Z,14.70
2022-09-20T15:31:49.064Z,14.50
2022-09-20T15:34:16.394Z,14.90
2022-09-20T15:36:44.963Z,15.00
2022-09-20T15:39:12.000Z,15.20
2022-09-20T15:41:39.043Z,15.30
2022-09-20T15:44:06.747Z,15.50
2022-09-20T15:46:33.741Z,15.30
2022-09-20T15:49:09.189Z,14.80
2022-09-20T15:51:36.227Z,14.30
2022-09-20T15:54:06.285Z,14.00
2022-09-20T15:56:34.874Z,13.80
2022-09-20T15:59:04.219Z,13.60
2022-09-20T16:01:37.280Z,13.40
2022-09-20T16:07:46.793Z,13.10
2022-09-20T16:10:19.690Z,12.70
2022-09-20T16:12:46.729Z,12.60
2022-09-20T16:15:13.810Z,12.50
2022-09-20T16:17:58.976Z,12.30
2022-09-20T16:20:25.971Z,12.30
2022-09-20T16:22:53.370Z,12.20
2022-09-20T16:25:20.743Z,12.30
2022-09-20T16:27:49.215Z,12.20
2022-09-20T16:30:23.548Z,12.00
2022-09-20T16:32:52.911Z,11.80
2022-09-20T16:35:28.081Z,11.90
2022-09-20T16:37:55.020Z,11.90
2022-09-20T16:40:22.027Z,11.70
2022-09-20T16:42:52.348Z,11.70
2022-09-20T16:45:20.248Z,11.50
2022-09-20T16:47:48.122Z,11.40
2022-09-20T16:54:31.803Z,11.30
2022-09-20T16:57:09.416Z,11.00
2022-09-20T16:59:37.201Z,10.70
2022-09-20T17:02:04.144Z,10.60
2022-09-20T17:04:31.275Z,10.40
2022-09-20T17:06:58.548Z,10.30
2022-09-20T17:09:25.529Z,10.10
2022-09-20T17:11:53.855Z,9.80
2022-09-20T17:14:21.167Z,9.70
2022-09-20T17:16:48.577Z,9.70
2022-09-20T17:19:18.620Z,9.90
2022-09-20T17:21:49.493Z,10.00
2022-09-20T17:24:17.648Z,9.90
2022-09-20T17:26:45.141Z,9.60
2022-09-20T17:29:16.337Z,9.20
2022-09-20T17:31:53.976Z,8.90
2022-09-20T17:34:22.397Z,8.70
2022-09-20T17:36:50.623Z,8.60
2022-09-20T17:39:18.191Z,8.60
2022-09-20T17:41:46.633Z,8.70
2022-09-20T17:44:13.997Z,8.30
2022-09-20T17:46:45.056Z,8.30
2022-09-20T17:49:13.423Z,8.20
2022-09-20T17:51:48.586Z,8.10
2022-09-20T17:54:15.754Z,8.20
2022-09-20T17:56:48.754Z,8.00
2022-09-20T17:59:16.775Z,7.80
2022-09-20T18:01:44.661Z,7.60
2022-09-20T18:04:11.891Z,7.70
2022-09-20T18:06:46.197Z,7.50
2022-09-20T18:09:15.909Z,7.60
2022-09-20T18:11:49.265Z,7.60
2022-09-20T18:14:17.450Z,7.40
2022-09-20T18:16:44.465Z,7.50
2022-09-20T18:19:11.673Z,7.50
2022-09-20T18:21:39.434Z,7.50
2022-09-20T18:24:07.340Z,7.40
2022-09-20T18:26:34.610Z,7.40
2022-09-20T18:29:11.267Z,7.40
2022-09-20T18:31:45.363Z,7.60
2022-09-20T18:34:22.965Z,7.80
2022-09-20T18:36:54.650Z,8.00
2022-09-20T18:39:23.254Z,8.10
2022-09-20T18:41:50.759Z,8.10
2022-09-20T18:44:18.943Z,8.10
2022-09-20T18:46:49.184Z,8.10
2022-09-20T18:49:17.152Z,8.00
2022-09-20T18:51:44.488Z,7.80
2022-09-20T18:54:11.815Z,7.80
2022-09-20T18:56:40.163Z,7.80
2022-09-20T18:59:20.941Z,7.80
2022-09-20T19:01:52.885Z,7.70
2022-09-20T19:04:38.383Z,7.60
2022-09-20T19:07:20.611Z,7.30
2022-09-20T19:09:56.841Z,7.20
2022-09-20T19:12:30.636Z,7.10
2022-09-20T19:15:10.841Z,7.00
2022-09-20T19:17:53.826Z,7.10
2022-09-20T19:20:42.253Z,7.10
2022-09-20T19:23:25.453Z,7.20
2022-09-20T19:26:00.275Z,7.30
2022-09-20T19:28:27.440Z,7.40
2022-09-20T19:30:55.731Z,7.30
2022-09-20T19:33:23.075Z,7.30
2022-09-20T19:35:50.616Z,7.60
2022-09-20T19:38:40.006Z,7.30
2022-09-20T19:41:31.706Z,7.10
2022-09-20T19:44:07.744Z,6.90
2022-09-20T19:46:57.430Z,6.80
2022-09-20T19:49:41.299Z,6.70
2022-09-20T19:52:12.508Z,6.70
2022-09-20T19:54:44.450Z,6.60
2022-09-20T19:57:21.238Z,6.40
2022-09-20T19:59:49.303Z,6.30
2022-09-20T20:02:16.482Z,6.30
2022-09-20T20:04:43.836Z,6.50
2022-09-20T20:07:30.030Z,6.80
2022-09-20T20:10:05.280Z,6.70
2022-09-20T20:12:50.663Z,6.80
2022-09-20T20:15:38.294Z,6.60
2022-09-20T20:18:28.195Z,6.60
2022-09-20T20:20:56.725Z,6.50
2022-09-20T20:23:41.822Z,6.40
2022-09-20T20:26:10.242Z,6.30
2022-09-20T20:28:37.363Z,6.20
2022-09-20T20:31:04.835Z,6.20
2022-09-20T20:33:33.019Z,6.20
2022-09-20T20:36:01.085Z,6.10
2022-09-20T20:38:37.739Z,6.00
2022-09-20T20:41:08.784Z,5.90
2022-09-20T20:43:37.262Z,6.70
2022-09-20T20:46:05.531Z,6.00
2022-09-20T20:48:32.935Z,5.90
2022-09-20T20:51:11.029Z,5.80
2022-09-20T20:53:39.449Z,5.70
2022-09-20T20:56:10.910Z,5.60
2022-09-20T20:58:41.529Z,5.60
2022-09-20T21:01:12.451Z,5.50
2022-09-20T21:03:41.281Z,5.30
2022-09-20T21:06:08.757Z,5.30
2022-09-20T21:08:39.710Z,5.20
2022-09-20T21:11:11.803Z,5.20
2022-09-20T21:13:39.863Z,5.20
2022-09-20T21:16:09.257Z,5.40
2022-09-20T21:18:36.321Z,5.70
2022-09-20T21:21:03.820Z,5.60
2022-09-20T21:23:35.079Z,5.60
2022-09-20T21:26:07.968Z,5.50
2022-09-20T21:28:36.993Z,5.50
2022-09-20T21:31:09.208Z,5.60
2022-09-20T21:33:38.599Z,5.60
2022-09-20T21:36:06.275Z,5.40
2022-09-20T21:38:34.737Z,5.60
2022-09-20T21:41:22.597Z,5.40
2022-09-20T21:43:53.258Z,5.30
2022-09-20T21:46:21.867Z,5.30
2022-09-20T21:48:49.257Z,5.20
2022-09-20T21:51:18.379Z,5.40
2022-09-20T21:53:45.292Z,5.60
2022-09-20T21:56:14.117Z,5.60
2022-09-20T21:58:41.373Z,5.50
2022-09-20T22:01:11.820Z,5.30
2022-09-20T22:04:05.972Z,5.30
2022-09-20T22:06:37.871Z,5.20
2022-09-20T22:09:09.513Z,5.20
2022-09-20T22:11:42.193Z,5.30
2022-09-20T22:14:10.033Z,5.10
2022-09-20T22:16:38.661Z,5.00
2022-09-20T22:19:06.236Z,5.10
2022-09-20T22:21:35.957Z,5.20
2022-09-20T22:24:07.773Z,5.30
2022-09-20T22:26:48.814Z,5.30
2022-09-20T22:29:16.167Z,5.30
2022-09-20T22:31:45.805Z,5.40
2022-09-20T22:34:51.113Z,5.40
2022-09-20T22:37:18.321Z,5.60
2022-09-20T22:39:46.927Z,5.70
2022-09-20T22:42:13.927Z,5.60
2022-09-20T22:44:41.001Z,5.60
2022-09-20T22:47:08.006Z,5.50
2022-09-20T22:49:35.113Z,5.40
2022-09-20T22:52:02.522Z,5.30
2022-09-20T22:54:29.494Z,5.40
2022-09-20T22:56:56.527Z,5.40
2022-09-20T22:59:23.654Z,5.20
2022-09-20T23:01:50.592Z,5.20
2022-09-20T23:04:19.234Z,5.10
2022-09-20T23:06:55.332Z,5.10
2022-09-20T23:09:27.510Z,5.10
2022-09-20T23:11:54.511Z,5.00
2022-09-20T23:14:21.827Z,5.00
2022-09-20T23:16:49.036Z,5.00
2022-09-20T23:19:16.329Z,5.00
2022-09-20T23:21:43.634Z,5.10
2022-09-20T23:24:12.483Z,5.10
2022-09-20T23:26:39.767Z,5.10
2022-09-20T23:29:08.989Z,5.20
2022-09-20T23:31:37.144Z,5.20
2022-09-20T23:34:05.531Z,5.10
2022-09-20T23:36:34.060Z,5.10
2022-09-20T23:39:01.105Z,5.10
2022-09-20T23:41:29.084Z,5.10
2022-09-20T23:43:56.044Z,5.10
2022-09-20T23:46:33.453Z,5.10
2022-09-20T23:49:00.444Z,4.70
2022-09-20T23:51:28.675Z,5.10
2022-09-20T23:53:56.294Z,5.10
2022-09-20T23:56:23.919Z,5.00
2022-09-20T23:58:51.727Z,5.00
